createdAt,value
2018-11-04T00:00:56.365Z,12.08
2018-11-04T00:03:27.323Z,12.06
2018-11-04T00:05:57.974Z,12.07
2018-11-04T00:08:28.647Z,12.05
2018-11-04T00:10:59.229Z,12.04
2018-11-04T00:13:29.834Z,12.06
2018-11-04T00:16:00.327Z,12.05
2018-11-04T00:18:30.725Z,12.05
2018-11-04T00:21:01.209Z,11.99
2018-11-04T00:23:31.756Z,11.99
2018-11-04T00:26:02.226Z,11.95
2018-11-04T00:31:13.556Z,11.90
2018-11-04T00:33:44.236Z,11.85
2018-11-04T00:36:14.813Z,11.79
2018-11-04T00:38:45.392Z,11.81
2018-11-04T00:41:15.758Z,11.80
2018-11-04T00:43:46.338Z,11.75
2018-11-04T00:46:16.798Z,11.71
2018-11-04T00:48:47.586Z,11.65
2018-11-04T00:51:18.467Z,11.64
2018-11-04T00:53:48.953Z,11.64
2018-11-04T00:56:19.582Z,11.61
2018-11-04T00:58:50.077Z,11.51
2018-11-04T01:01:20.641Z,11.43
2018-11-04T01:03:51.201Z,11.38
2018-11-04T01:06:21.720Z,11.28
2018-11-04T01:08:52.477Z,11.31
2018-11-04T01:11:23.023Z,11.30
2018-11-04T01:13:53.492Z,11.34
2018-11-04T01:16:24.158Z,11.30
2018-11-04T01:18:55.076Z,11.32
2018-11-04T01:21:25.622Z,11.27
2018-11-04T01:28:57.677Z,11.25
2018-11-04T01:31:28.197Z,11.15
2018-11-04T01:33:59.792Z,11.10
2018-11-04T01:36:30.250Z,11.11
2018-11-04T01:39:00.786Z,11.18
2018-11-04T01:41:31.315Z,11.17
2018-11-04T01:44:01.878Z,11.17
2018-11-04T01:46:32.606Z,11.19
2018-11-04T01:49:03.151Z,11.18
2018-11-04T01:51:33.680Z,11.21
2018-11-04T01:54:04.139Z,11.23
2018-11-04T01:56:34.663Z,11.22
2018-11-04T01:59:05.141Z,11.22
2018-11-04T02:01:35.574Z,11.20
2018-11-04T02:04:06.389Z,11.16
2018-11-04T02:06:36.944Z,11.19
2018-11-04T02:09:10.307Z,11.18
2018-11-04T02:11:40.975Z,11.25
2018-11-04T02:14:11.455Z,11.23
2018-11-04T02:16:42.234Z,11.30
2018-11-04T02:19:13.055Z,11.30
2018-11-04T02:21:43.606Z,11.26
2018-11-04T02:24:14.139Z,11.17
2018-11-04T02:26:45.345Z,11.23
2018-11-04T02:29:16.659Z,11.26
2018-11-04T02:31:47.465Z,11.29
2018-11-04T02:34:17.892Z,11.30
2018-11-04T02:39:30.193Z,11.22
2018-11-04T02:42:00.656Z,11.12
2018-11-04T02:47:11.165Z,10.97
2018-11-04T02:49:41.594Z,10.95
2018-11-04T02:52:12.439Z,10.94
2018-11-04T02:54:42.858Z,10.91
2018-11-04T02:57:13.428Z,10.96
2018-11-04T02:59:44.525Z,10.96
2018-11-04T03:02:15.721Z,10.97
2018-11-04T03:04:46.509Z,10.92
2018-11-04T03:07:17.104Z,10.86
2018-11-04T03:09:47.649Z,10.83
2018-11-04T03:12:18.106Z,10.85
2018-11-04T03:14:48.537Z,10.93
2018-11-04T03:17:18.951Z,10.96
2018-11-04T03:19:49.599Z,10.95
2018-11-04T03:22:20.124Z,10.98
2018-11-04T03:24:50.726Z,10.77
2018-11-04T03:27:21.277Z,10.72
2018-11-04T03:29:51.749Z,10.68
2018-11-04T03:32:22.238Z,10.65
2018-11-04T03:34:52.826Z,10.58
2018-11-04T03:37:23.382Z,10.51
2018-11-04T03:39:53.893Z,10.53
2018-11-04T03:42:24.411Z,10.56
2018-11-04T03:44:55.344Z,10.51
2018-11-04T03:47:26.586Z,10.43
2018-11-04T03:49:57.555Z,10.47
2018-11-04T03:52:28.090Z,10.44
2018-11-04T03:54:58.732Z,10.49
2018-11-04T03:57:29.167Z,10.49
2018-11-04T03:59:59.743Z,10.55
2018-11-04T04:02:30.212Z,10.53
2018-11-04T04:05:01.021Z,10.57
2018-11-04T04:07:31.630Z,10.63
2018-11-04T04:10:02.000Z,10.63
2018-11-04T04:12:32.454Z,10.59
2018-11-04T04:15:03.080Z,10.59
2018-11-04T04:17:33.640Z,10.57
2018-11-04T04:20:04.121Z,10.54
2018-11-04T04:22:34.721Z,10.55
2018-11-04T04:25:05.294Z,10.62
2018-11-04T04:27:35.836Z,10.57
2018-11-04T04:30:08.149Z,10.59
2018-11-04T04:32:38.625Z,10.60
2018-11-04T04:35:10.086Z,10.60
2018-11-04T04:37:40.972Z,10.57
2018-11-04T04:40:11.795Z,10.58
2018-11-04T04:42:42.253Z,10.57
2018-11-04T04:45:12.862Z,10.51
2018-11-04T04:47:43.398Z,10.47
2018-11-04T04:50:13.918Z,10.43
2018-11-04T04:52:44.354Z,10.41
2018-11-04T04:55:14.859Z,10.45
2018-11-04T04:57:45.280Z,10.36
2018-11-04T05:00:16.312Z,10.29
2018-11-04T05:02:46.765Z,10.17
2018-11-04T05:05:17.478Z,10.24
2018-11-04T05:07:47.986Z,10.17
2018-11-04T05:10:18.528Z,10.13
2018-11-04T05:12:49.013Z,10.19
2018-11-04T05:15:20.347Z,10.17
2018-11-04T05:17:50.848Z,10.12
2018-11-04T05:23:00.486Z,10.19
2018-11-04T05:25:30.964Z,10.24
2018-11-04T05:28:01.480Z,10.11
2018-11-04T05:30:31.964Z,10.22
2018-11-04T05:33:02.443Z,10.26
2018-11-04T05:35:33.873Z,10.31
2018-11-04T05:38:04.418Z,10.30
2018-11-04T05:40:35.133Z,10.42
2018-11-04T05:43:05.771Z,10.43
2018-11-04T05:45:36.247Z,10.52
2018-11-04T05:48:06.909Z,10.45
2018-11-04T05:50:38.215Z,10.45
2018-11-04T05:53:08.706Z,10.52
2018-11-04T05:55:40.117Z,10.62
2018-11-04T05:58:10.579Z,10.60
2018-11-04T06:00:41.109Z,10.68
2018-11-04T06:03:11.623Z,10.68
2018-11-04T06:08:21.212Z,10.87
2018-11-04T06:13:37.857Z,11.08
2018-11-04T06:16:08.772Z,11.13
2018-11-04T06:18:39.263Z,11.30
2018-11-04T06:21:09.873Z,11.42
2018-11-04T06:23:40.306Z,11.46
2018-11-04T06:26:10.868Z,11.63
2018-11-04T06:28:41.302Z,11.78
2018-11-04T06:31:11.856Z,11.91
2018-11-04T06:33:42.360Z,11.98
2018-11-04T06:36:12.739Z,12.28
2018-11-04T06:38:43.294Z,12.49
2018-11-04T06:41:13.801Z,12.66
2018-11-04T06:43:44.175Z,12.73
2018-11-04T06:46:14.678Z,12.77
2018-11-04T06:48:45.204Z,12.84
2018-11-04T06:51:15.759Z,12.82
2018-11-04T06:53:46.216Z,12.92
2018-11-04T06:56:16.751Z,13.01
2018-11-04T06:58:47.350Z,13.22
2018-11-04T07:01:17.789Z,13.32
2018-11-04T07:03:58.901Z,13.19
2018-11-04T07:06:29.901Z,13.24
2018-11-04T07:09:00.622Z,13.19
2018-11-04T07:11:31.248Z,13.10
2018-11-04T07:14:01.674Z,12.95
2018-11-04T07:16:32.091Z,12.99
2018-11-04T07:19:02.467Z,12.97
2018-11-04T07:21:33.150Z,13.05
2018-11-04T07:24:04.109Z,13.06
2018-11-04T07:26:34.927Z,13.05
2018-11-04T07:29:05.690Z,13.04
2018-11-04T07:31:36.573Z,13.12
2018-11-04T07:34:07.393Z,13.24
2018-11-04T07:36:37.860Z,13.39
2018-11-04T07:39:10.977Z,13.64
2018-11-04T07:41:41.626Z,13.65
2018-11-04T07:44:12.996Z,13.56
2018-11-04T07:46:43.496Z,13.66
2018-11-04T07:49:14.007Z,13.67
2018-11-04T07:51:44.880Z,13.69
2018-11-04T07:54:15.561Z,13.70
2018-11-04T07:56:46.489Z,13.75
2018-11-04T07:59:16.965Z,13.94
2018-11-04T08:01:47.417Z,13.81
2018-11-04T08:04:17.907Z,13.79
2018-11-04T08:06:48.447Z,13.83
2018-11-04T08:09:18.826Z,13.65
2018-11-04T08:11:49.473Z,13.55
2018-11-04T08:14:20.078Z,13.51
2018-11-04T08:16:50.513Z,13.42
2018-11-04T08:19:20.984Z,13.32
2018-11-04T08:21:51.478Z,13.34
2018-11-04T08:24:22.009Z,13.26
2018-11-04T08:26:52.470Z,13.46
2018-11-04T08:29:22.957Z,13.57
2018-11-04T08:31:53.822Z,13.51
2018-11-04T08:34:24.262Z,13.43
2018-11-04T08:36:54.842Z,13.40
2018-11-04T08:39:25.418Z,13.70
2018-11-04T08:41:56.611Z,14.13
2018-11-04T08:44:27.032Z,14.40
2018-11-04T08:46:57.591Z,14.44
2018-11-04T08:49:27.987Z,14.54
2018-11-04T08:51:58.633Z,14.47
2018-11-04T08:54:29.202Z,14.41
2018-11-04T08:56:59.648Z,14.64
2018-11-04T08:59:30.111Z,14.73
2018-11-04T09:02:00.591Z,14.98
2018-11-04T09:04:31.063Z,15.17
2018-11-04T09:07:01.546Z,15.12
2018-11-04T09:09:32.100Z,15.05
2018-11-04T09:12:03.640Z,14.97
2018-11-04T09:14:34.242Z,14.90
2018-11-04T09:17:04.753Z,14.86
2018-11-04T09:19:35.221Z,14.96
2018-11-04T09:22:06.933Z,15.06
2018-11-04T09:24:37.418Z,14.97
2018-11-04T09:27:08.009Z,14.88
2018-11-04T09:29:38.567Z,14.74
2018-11-04T09:32:09.211Z,14.72
2018-11-04T09:34:39.733Z,14.74
2018-11-04T09:37:10.250Z,14.68
2018-11-04T09:39:40.725Z,14.89
2018-11-04T09:42:11.578Z,15.60
2018-11-04T09:44:42.264Z,15.90
2018-11-04T09:47:12.899Z,15.72
2018-11-04T09:49:43.458Z,15.52
2018-11-04T09:52:14.126Z,15.68
2018-11-04T09:54:44.604Z,16.43
2018-11-04T09:57:15.131Z,17.23
2018-11-04T09:59:45.548Z,17.41
2018-11-04T10:02:16.884Z,17.37
2018-11-04T10:04:47.582Z,17.37
2018-11-04T10:07:18.297Z,17.29
2018-11-04T10:09:48.811Z,17.21
2018-11-04T10:12:19.595Z,17.48
2018-11-04T10:14:50.322Z,17.43
2018-11-04T10:17:20.884Z,17.77
2018-11-04T10:19:51.592Z,18.06
2018-11-04T10:22:21.904Z,18.00
2018-11-04T10:24:52.954Z,18.21
2018-11-04T10:27:23.359Z,18.40
2018-11-04T10:29:53.868Z,18.28
2018-11-04T10:32:24.608Z,18.28
2018-11-04T10:34:55.276Z,18.65
2018-11-04T10:37:25.934Z,18.85
2018-11-04T10:39:56.428Z,19.30
2018-11-04T10:42:27.037Z,18.84
2018-11-04T10:44:57.482Z,19.02
2018-11-04T10:47:28.009Z,18.94
2018-11-04T10:49:58.569Z,19.45
2018-11-04T10:52:29.115Z,19.45
2018-11-04T10:54:59.605Z,19.55
2018-11-04T10:57:30.173Z,19.50
2018-11-04T11:00:00.653Z,19.67
2018-11-04T11:02:31.147Z,19.59
2018-11-04T11:05:01.624Z,19.70
2018-11-04T11:07:32.434Z,19.29
2018-11-04T11:10:03.053Z,19.02
2018-11-04T11:12:33.725Z,18.75
2018-11-04T11:15:04.237Z,18.63
2018-11-04T11:17:34.725Z,18.17
2018-11-04T11:20:05.580Z,17.85
2018-11-04T11:22:36.238Z,17.78
2018-11-04T11:25:07.262Z,17.79
2018-11-04T11:27:37.682Z,17.60
2018-11-04T11:30:08.327Z,17.56
2018-11-04T11:32:38.935Z,17.66
2018-11-04T11:35:09.603Z,17.55
2018-11-04T11:37:40.137Z,17.47
2018-11-04T11:40:11.052Z,17.04
2018-11-04T11:42:41.789Z,16.65
2018-11-04T11:45:12.249Z,16.36
2018-11-04T11:47:42.669Z,16.12
2018-11-04T11:50:13.101Z,15.96
2018-11-04T11:52:43.767Z,15.87
2018-11-04T11:55:14.317Z,15.64
2018-11-04T11:57:45.036Z,15.69
2018-11-04T12:00:16.607Z,15.59
2018-11-04T12:02:47.008Z,15.78
2018-11-04T12:05:17.494Z,15.70
2018-11-04T12:07:47.878Z,15.60
2018-11-04T12:10:18.794Z,15.46
2018-11-04T12:12:49.397Z,15.37
2018-11-04T12:15:20.601Z,15.21
2018-11-04T12:17:51.189Z,15.13
2018-11-04T12:20:21.822Z,15.12
2018-11-04T12:22:52.479Z,15.11
2018-11-04T12:25:23.144Z,15.18
2018-11-04T12:27:53.654Z,15.06
2018-11-04T12:30:24.265Z,15.12
2018-11-04T12:32:54.926Z,15.08
2018-11-04T12:35:25.581Z,15.02
2018-11-04T12:37:55.874Z,15.06
2018-11-04T12:40:26.777Z,15.03
2018-11-04T12:42:57.210Z,14.86
2018-11-04T12:45:27.780Z,14.68
2018-11-04T12:47:58.291Z,14.68
2018-11-04T12:50:28.999Z,14.75
2018-11-04T12:52:59.721Z,14.84
2018-11-04T12:55:30.244Z,14.82
2018-11-04T12:58:00.681Z,14.65
2018-11-04T13:00:31.118Z,14.55
2018-11-04T13:03:01.664Z,14.46
2018-11-04T13:05:32.165Z,14.39
2018-11-04T13:08:02.653Z,14.35
2018-11-04T13:10:33.208Z,14.47
2018-11-04T13:13:03.904Z,14.48
2018-11-04T13:15:34.434Z,14.35
2018-11-04T13:18:04.836Z,14.26
2018-11-04T13:21:59.269Z,14.26
2018-11-04T13:24:29.876Z,14.32
2018-11-04T13:27:00.395Z,14.29
2018-11-04T13:29:30.926Z,14.33
2018-11-04T13:32:01.534Z,14.21
2018-11-04T13:34:32.349Z,14.18
2018-11-04T13:37:02.925Z,14.08
2018-11-04T13:39:33.379Z,14.06
2018-11-04T13:42:03.929Z,13.96
2018-11-04T13:44:34.432Z,13.87
2018-11-04T13:47:04.908Z,13.79
2018-11-04T13:49:35.532Z,13.82
2018-11-04T13:52:05.975Z,13.77
2018-11-04T13:54:36.568Z,13.73
2018-11-04T13:57:07.221Z,13.66
2018-11-04T13:59:38.018Z,13.68
2018-11-04T14:02:08.482Z,13.68
2018-11-04T14:04:38.935Z,13.59
2018-11-04T14:07:09.573Z,13.61
2018-11-04T14:09:40.602Z,13.64
2018-11-04T14:12:11.103Z,13.58
2018-11-04T14:14:41.833Z,13.58
2018-11-04T14:17:12.490Z,13.60
2018-11-04T14:19:43.000Z,13.55
2018-11-04T14:22:13.512Z,13.53
2018-11-04T14:24:43.955Z,13.42
2018-11-04T14:27:14.432Z,13.40
2018-11-04T14:29:44.778Z,13.43
2018-11-04T14:32:15.179Z,13.33
2018-11-04T14:34:45.938Z,13.27
2018-11-04T14:37:16.422Z,13.23
2018-11-04T14:39:47.238Z,13.13
2018-11-04T14:42:17.810Z,13.03
2018-11-04T14:44:48.350Z,13.05
2018-11-04T14:47:18.945Z,13.07
2018-11-04T14:49:49.417Z,13.01
2018-11-04T14:52:19.835Z,12.96
2018-11-04T14:54:50.512Z,12.85
2018-11-04T14:57:20.912Z,12.84
2018-11-04T14:59:51.474Z,12.82
2018-11-04T15:02:22.054Z,12.78
2018-11-04T15:04:52.542Z,12.75
2018-11-04T15:07:24.036Z,12.66
2018-11-04T15:09:54.553Z,12.67
2018-11-04T15:12:25.134Z,12.66
2018-11-04T15:14:55.997Z,12.68
2018-11-04T15:17:26.468Z,12.64
2018-11-04T15:19:56.969Z,12.63
2018-11-04T15:22:27.481Z,12.61
2018-11-04T15:24:57.913Z,12.67
2018-11-04T15:27:28.395Z,12.59
2018-11-04T15:29:58.847Z,12.62
2018-11-04T15:32:29.333Z,12.65
2018-11-04T15:34:59.914Z,12.57
2018-11-04T15:37:30.404Z,12.67
2018-11-04T15:40:00.897Z,12.58
2018-11-04T15:42:31.269Z,12.65
2018-11-04T15:45:01.722Z,12.62
2018-11-04T15:47:32.169Z,12.56
2018-11-04T15:50:02.710Z,12.60
2018-11-04T15:52:33.261Z,12.47
2018-11-04T15:55:03.706Z,12.57
2018-11-04T15:57:34.189Z,12.59
2018-11-04T16:00:04.839Z,12.58
2018-11-04T16:02:35.280Z,12.49
2018-11-04T16:05:06.465Z,12.48
2018-11-04T16:07:36.957Z,12.43
2018-11-04T16:10:08.609Z,12.36
2018-11-04T16:12:39.355Z,12.36
2018-11-04T16:15:12.234Z,12.30
2018-11-04T16:17:43.174Z,12.26
2018-11-04T16:20:14.908Z,12.21
2018-11-04T16:22:46.180Z,12.23
2018-11-04T16:25:16.934Z,12.32
2018-11-04T16:27:47.512Z,12.32
2018-11-04T16:30:18.005Z,12.32
2018-11-04T16:32:48.628Z,12.38
2018-11-04T16:35:19.254Z,12.41
2018-11-04T16:37:49.710Z,12.36
2018-11-04T16:40:20.270Z,12.39
2018-11-04T16:42:50.980Z,12.37
2018-11-04T16:45:21.511Z,12.40
2018-11-04T16:47:52.080Z,12.39
2018-11-04T16:50:22.639Z,12.32
2018-11-04T16:52:53.191Z,12.39
2018-11-04T16:55:23.893Z,12.37
2018-11-04T16:57:54.310Z,12.34
2018-11-04T17:00:24.844Z,12.29
2018-11-04T17:02:55.451Z,12.29
2018-11-04T17:05:26.099Z,12.33
2018-11-04T17:07:56.646Z,12.26
2018-11-04T17:10:27.303Z,12.22
2018-11-04T17:12:57.911Z,12.25
2018-11-04T17:15:28.626Z,12.28
2018-11-04T17:17:59.841Z,12.28
2018-11-04T17:20:30.352Z,12.30
2018-11-04T17:23:01.922Z,12.28
2018-11-04T17:25:32.413Z,12.22
2018-11-04T17:28:03.511Z,12.25
2018-11-04T17:30:34.041Z,12.25
2018-11-04T17:33:04.544Z,12.35
2018-11-04T17:35:35.416Z,12.38
2018-11-04T17:38:06.217Z,12.40
2018-11-04T17:40:36.755Z,12.37
2018-11-04T17:43:07.428Z,12.35
2018-11-04T17:45:37.954Z,12.35
2018-11-04T17:48:08.557Z,12.33
2018-11-04T17:53:19.181Z,12.32
2018-11-04T17:55:49.776Z,12.33
2018-11-04T17:58:20.208Z,12.26
2018-11-04T18:00:50.885Z,12.26
2018-11-04T18:03:21.299Z,12.22
2018-11-04T18:05:51.773Z,12.24
2018-11-04T18:08:22.301Z,12.19
2018-11-04T18:10:52.790Z,12.14
2018-11-04T18:13:23.283Z,12.16
2018-11-04T18:15:53.709Z,12.22
2018-11-04T18:18:24.222Z,12.16
2018-11-04T18:20:54.728Z,12.16
2018-11-04T18:23:25.232Z,12.17
2018-11-04T18:25:55.962Z,12.18
2018-11-04T18:28:26.411Z,12.17
2018-11-04T18:30:57.009Z,12.23
2018-11-04T18:33:27.389Z,12.18
2018-11-04T18:35:57.841Z,12.02
2018-11-04T18:38:28.323Z,12.02
2018-11-04T18:40:58.971Z,12.04
2018-11-04T18:43:29.386Z,12.05
2018-11-04T18:45:59.829Z,12.04
2018-11-04T18:48:30.351Z,12.01
2018-11-04T18:51:00.943Z,11.97
2018-11-04T18:53:31.409Z,12.01
2018-11-04T18:56:02.290Z,11.97
2018-11-04T18:58:32.848Z,12.03
2018-11-04T19:01:03.362Z,12.04
2018-11-04T19:03:33.840Z,11.99
2018-11-04T19:06:04.419Z,11.92
2018-11-04T19:08:34.898Z,12.02
2018-11-04T19:11:05.674Z,12.10
2018-11-04T19:13:36.730Z,12.03
2018-11-04T19:16:08.230Z,11.92
2018-11-04T19:18:38.753Z,11.93
2018-11-04T19:21:09.213Z,12.00
2018-11-04T19:23:39.739Z,11.94
2018-11-04T19:26:10.256Z,11.92
2018-11-04T19:28:40.847Z,11.97
2018-11-04T19:31:11.699Z,11.97
2018-11-04T19:33:42.228Z,12.00
2018-11-04T19:36:12.902Z,12.05
2018-11-04T19:38:43.399Z,12.00
2018-11-04T19:41:13.931Z,12.03
2018-11-04T19:43:44.462Z,12.04
2018-11-04T19:46:14.870Z,12.01
2018-11-04T19:48:45.691Z,12.04
2018-11-04T19:51:16.411Z,11.98
2018-11-04T19:53:46.921Z,11.95
2018-11-04T19:56:18.033Z,11.99
2018-11-04T19:58:48.681Z,12.05
2018-11-04T20:01:19.130Z,12.01
2018-11-04T20:03:49.644Z,12.00
2018-11-04T20:06:20.117Z,12.00
2018-11-04T20:08:55.525Z,11.97
2018-11-04T20:11:26.121Z,11.98
2018-11-04T20:14:01.379Z,11.91
2018-11-04T20:16:32.071Z,11.81
2018-11-04T20:20:11.009Z,11.84
2018-11-04T20:22:42.045Z,11.72
2018-11-04T20:25:17.587Z,11.70
2018-11-04T20:27:48.085Z,11.75
2018-11-04T20:30:18.560Z,11.78
2018-11-04T20:32:54.029Z,11.80
2018-11-04T20:35:27.605Z,11.82
2018-11-04T20:37:58.216Z,11.86
2018-11-04T20:40:33.529Z,11.92
2018-11-04T20:43:04.029Z,11.94
2018-11-04T20:45:34.488Z,12.02
2018-11-04T20:48:09.953Z,12.05
2018-11-04T20:50:45.278Z,12.10
2018-11-04T20:53:15.748Z,12.04
2018-11-04T20:55:51.117Z,12.03
2018-11-04T20:58:21.825Z,12.05
2018-11-04T21:00:52.102Z,12.01
2018-11-04T21:03:22.546Z,11.82
2018-11-04T21:05:53.077Z,11.77
2018-11-04T21:08:26.819Z,11.73
2018-11-04T21:10:57.379Z,11.79
2018-11-04T21:13:28.412Z,11.75
2018-11-04T21:15:58.998Z,11.64
2018-11-04T21:18:29.506Z,11.66
2018-11-04T21:20:59.866Z,11.58
2018-11-04T21:23:30.390Z,11.59
2018-11-04T21:26:00.941Z,11.57
2018-11-04T21:28:31.526Z,11.55
2018-11-04T21:31:02.168Z,11.61
2018-11-04T21:33:32.661Z,11.66
2018-11-04T21:36:03.133Z,11.65
2018-11-04T21:38:33.587Z,11.65
2018-11-04T21:41:04.115Z,11.67
2018-11-04T21:43:34.840Z,11.72
2018-11-04T21:46:05.174Z,11.66
2018-11-04T21:48:36.574Z,11.76
2018-11-04T21:51:07.196Z,11.78
2018-11-04T21:53:37.717Z,11.81
2018-11-04T21:56:08.978Z,11.81
2018-11-04T21:58:39.585Z,11.83
2018-11-04T22:01:10.192Z,11.86
2018-11-04T22:03:40.939Z,11.88
2018-11-04T22:06:11.512Z,11.92
2018-11-04T22:08:42.062Z,11.82
2018-11-04T22:11:12.470Z,11.82
2018-11-04T22:13:43.122Z,11.80
2018-11-04T22:16:13.601Z,11.81
2018-11-04T22:18:44.074Z,11.80
2018-11-04T22:21:14.615Z,11.79
2018-11-04T22:23:45.049Z,11.82
2018-11-04T22:26:15.633Z,11.76
2018-11-04T22:28:46.828Z,11.67
2018-11-04T22:31:17.260Z,11.68
2018-11-04T22:33:47.694Z,11.61
2018-11-04T22:36:18.220Z,11.49
2018-11-04T22:38:48.637Z,11.50
2018-11-04T22:41:19.063Z,11.55
2018-11-04T22:43:49.551Z,11.48
2018-11-04T22:46:20.046Z,11.36
2018-11-04T22:48:50.564Z,11.30
2018-11-04T22:51:21.153Z,11.29
2018-11-04T22:53:51.674Z,11.31
2018-11-04T22:56:22.328Z,11.17
2018-11-04T22:58:52.751Z,11.08
2018-11-04T23:01:23.277Z,11.08
2018-11-04T23:03:53.646Z,10.99
2018-11-04T23:06:24.281Z,11.08
2018-11-04T23:08:54.757Z,11.11
2018-11-04T23:11:25.173Z,11.23
2018-11-04T23:13:55.939Z,11.19
2018-11-04T23:16:26.427Z,11.18
2018-11-04T23:18:57.784Z,11.05
2018-11-04T23:21:28.261Z,11.19
